createdAt,value
2023-06-14T00:00:45.571Z,99995.81
2023-06-14T00:03:19.217Z,99989.56
2023-06-14T00:05:47.803Z,99989.56
2023-06-14T00:08:16.625Z,99992.75
2023-06-14T00:10:45.066Z,99983.00
2023-06-14T00:13:14.312Z,99979.56
2023-06-14T00:15:43.729Z,99985.00
2023-06-14T00:18:13.136Z,99983.94
2023-06-14T00:20:43.782Z,99982.69
2023-06-14T00:23:12.378Z,99988.03
2023-06-14T00:25:40.834Z,99982.88
2023-06-14T00:28:09.221Z,99977.44
2023-06-14T00:30:37.561Z,99980.34
2023-06-14T00:33:06.074Z,99982.41
2023-06-14T00:35:34.515Z,99989.81
2023-06-14T00:38:04.579Z,99990.16
2023-06-14T00:40:32.967Z,99988.47
2023-06-14T00:43:01.284Z,99991.06
2023-06-14T00:45:29.945Z,99996.47
2023-06-14T00:47:58.983Z,99998.59
2023-06-14T00:50:27.570Z,99995.41
2023-06-14T00:52:56.110Z,99992.13
2023-06-14T00:55:26.152Z,99994.41
2023-06-14T00:57:54.449Z,100005.06
2023-06-14T01:00:23.016Z,100001.13
2023-06-14T01:02:51.952Z,99998.00
2023-06-14T01:05:21.486Z,99992.19
2023-06-14T01:08:09.469Z,99994.78
2023-06-14T01:10:50.649Z,99999.50
2023-06-14T01:13:23.952Z,99995.38
2023-06-14T01:15:53.288Z,99995.88
2023-06-14T01:18:21.976Z,99997.09
2023-06-14T01:20:51.744Z,99996.72
2023-06-14T01:23:22.969Z,100001.91
2023-06-14T01:25:54.244Z,99995.72
2023-06-14T01:28:23.770Z,99996.06
2023-06-14T01:30:54.933Z,99994.16
2023-06-14T01:33:25.095Z,99992.59
2023-06-14T01:35:54.856Z,99998.34
2023-06-14T01:38:28.183Z,100001.00
2023-06-14T01:41:00.169Z,99993.94
2023-06-14T01:43:32.220Z,99996.28
2023-06-14T01:46:01.937Z,99999.25
2023-06-14T01:48:30.548Z,99993.94
2023-06-14T01:50:58.843Z,99995.78
2023-06-14T01:53:28.863Z,99996.13
2023-06-14T01:55:57.205Z,100000.69
2023-06-14T01:58:27.475Z,99995.91
2023-06-14T02:00:58.007Z,100000.78
2023-06-14T02:03:26.470Z,99995.81
2023-06-14T02:05:55.736Z,99995.56
2023-06-14T02:08:24.567Z,99998.84
2023-06-14T02:10:54.734Z,99998.38
2023-06-14T02:13:23.074Z,100003.91
2023-06-14T02:15:55.674Z,100002.97
2023-06-14T02:18:25.781Z,99997.19
2023-06-14T02:20:54.242Z,99993.69
2023-06-14T02:23:22.629Z,100001.44
2023-06-14T02:25:51.379Z,99999.63
2023-06-14T02:28:21.682Z,100002.25
2023-06-14T02:30:50.019Z,99999.78
2023-06-14T02:33:18.982Z,100007.78
2023-06-14T02:35:47.872Z,100009.31
2023-06-14T02:38:16.318Z,100005.91
2023-06-14T02:40:44.776Z,100012.63
2023-06-14T02:43:13.145Z,100009.06
2023-06-14T02:45:43.163Z,100014.38
2023-06-14T02:48:11.864Z,100012.19
2023-06-14T02:50:40.199Z,100008.78
2023-06-14T02:53:08.573Z,100018.13
2023-06-14T02:55:41.435Z,100018.91
2023-06-14T02:58:10.078Z,100022.47
2023-06-14T03:00:39.847Z,100017.13
2023-06-14T03:03:15.298Z,100023.03
2023-06-14T03:05:47.330Z,100019.84
2023-06-14T03:08:18.142Z,100025.84
2023-06-14T03:10:46.605Z,100013.50
2023-06-14T03:13:15.032Z,100018.53
2023-06-14T03:15:46.392Z,100023.69
2023-06-14T03:18:16.203Z,100031.28
2023-06-14T03:20:46.708Z,100037.00
2023-06-14T03:23:15.157Z,100031.22
2023-06-14T03:25:43.520Z,100026.63
2023-06-14T03:28:11.904Z,100027.28
2023-06-14T03:30:40.199Z,100032.97
2023-06-14T03:33:09.894Z,100035.34
2023-06-14T03:35:39.681Z,100024.38
2023-06-14T03:38:08.006Z,100027.03
2023-06-14T03:40:36.350Z,100029.97
2023-06-14T03:43:04.683Z,100027.47
2023-06-14T03:45:32.915Z,100027.22
2023-06-14T03:48:02.137Z,100030.00
2023-06-14T03:50:30.551Z,100029.19
2023-06-14T03:53:00.317Z,100036.91
2023-06-14T03:58:00.183Z,100030.41
2023-06-14T04:00:28.529Z,100041.69
2023-06-14T04:02:56.899Z,100043.84
2023-06-14T04:05:27.873Z,100040.66
2023-06-14T04:07:57.188Z,100046.56
2023-06-14T04:10:27.104Z,100041.22
2023-06-14T04:12:55.403Z,100042.31
2023-06-14T04:15:24.242Z,100038.88
2023-06-14T04:17:52.958Z,100045.94
2023-06-14T04:20:21.294Z,100045.66
2023-06-14T04:22:50.371Z,100046.44
2023-06-14T04:25:23.748Z,100047.53
2023-06-14T04:27:54.648Z,100044.81
2023-06-14T04:30:28.286Z,100047.13
2023-06-14T04:32:57.324Z,100048.97
2023-06-14T04:35:26.702Z,100046.34
2023-06-14T04:37:56.346Z,100063.00
2023-06-14T04:40:25.793Z,100065.25
2023-06-14T04:42:55.727Z,100064.00
2023-06-14T04:45:24.858Z,100062.38
2023-06-14T04:47:58.737Z,100078.22
2023-06-14T04:50:27.320Z,100076.84
2023-06-14T04:52:56.274Z,100085.31
2023-06-14T04:55:24.569Z,100086.44
2023-06-14T04:57:55.483Z,100081.81
2023-06-14T05:00:24.597Z,100081.22
2023-06-14T05:02:54.449Z,100091.63
2023-06-14T05:05:24.088Z,100086.38
2023-06-14T05:07:52.422Z,100088.00
2023-06-14T05:10:20.815Z,100098.66
2023-06-14T05:12:49.585Z,100092.28
2023-06-14T05:15:19.369Z,100101.56
2023-06-14T05:17:54.354Z,100095.09
2023-06-14T05:20:23.970Z,100097.84
2023-06-14T05:22:53.215Z,100096.56
2023-06-14T05:25:21.967Z,100090.63
2023-06-14T05:27:51.026Z,100103.09
2023-06-14T05:30:20.791Z,100103.66
2023-06-14T05:32:49.260Z,100104.31
2023-06-14T05:35:18.073Z,100113.69
2023-06-14T05:37:46.924Z,100110.91
2023-06-14T05:40:15.479Z,100111.81
2023-06-14T05:42:43.804Z,100121.16
2023-06-14T05:45:12.352Z,100119.59
2023-06-14T05:47:42.044Z,100120.41
2023-06-14T05:50:11.443Z,100122.88
2023-06-14T05:52:39.876Z,100123.53
2023-06-14T05:55:08.657Z,100119.47
2023-06-14T05:57:37.004Z,100126.72
2023-06-14T06:00:11.934Z,100128.75
2023-06-14T06:02:41.800Z,100125.03
2023-06-14T06:05:10.868Z,100130.63
2023-06-14T06:07:41.015Z,100128.91
2023-06-14T06:10:09.906Z,100131.19
2023-06-14T06:12:38.211Z,100134.44
2023-06-14T06:15:07.525Z,100141.16
2023-06-14T06:17:53.866Z,100144.44
2023-06-14T06:20:30.116Z,100139.38
2023-06-14T06:22:59.010Z,100134.34
2023-06-14T06:25:29.104Z,100132.53
2023-06-14T06:27:58.466Z,100129.25
2023-06-14T06:30:26.904Z,100139.47
2023-06-14T06:32:57.235Z,100137.66
2023-06-14T06:35:27.149Z,100141.53
2023-06-14T06:37:55.461Z,100128.75
2023-06-14T06:40:24.111Z,100132.53
2023-06-14T06:42:52.442Z,100145.41
2023-06-14T06:45:21.244Z,100151.53
2023-06-14T06:47:51.517Z,100142.56
2023-06-14T06:50:21.089Z,100147.38
2023-06-14T06:52:51.386Z,100135.13
2023-06-14T06:55:20.447Z,100138.72
2023-06-14T06:57:48.748Z,100141.50
2023-06-14T07:00:19.391Z,100141.47
2023-06-14T07:02:48.146Z,100144.56
2023-06-14T07:05:16.720Z,100141.31
2023-06-14T07:07:45.148Z,100125.56
2023-06-14T07:10:14.864Z,100123.44
2023-06-14T07:12:43.329Z,100136.41
2023-06-14T07:15:14.055Z,100132.66
2023-06-14T07:17:42.819Z,100133.94
2023-06-14T07:20:14.869Z,100131.00
2023-06-14T07:22:44.075Z,100139.72
2023-06-14T07:25:15.555Z,100127.97
2023-06-14T07:27:48.280Z,100140.44
2023-06-14T07:30:17.858Z,100144.78
2023-06-14T07:32:46.225Z,100147.06
2023-06-14T07:35:14.787Z,100155.03
2023-06-14T07:37:43.352Z,100143.47
2023-06-14T07:40:12.762Z,100140.84
2023-06-14T07:42:41.120Z,100139.41
2023-06-14T07:45:11.815Z,100142.53
2023-06-14T07:47:40.210Z,100139.56
2023-06-14T07:50:09.280Z,100130.50
2023-06-14T07:52:37.649Z,100129.72
2023-06-14T07:55:06.928Z,100135.84
2023-06-14T07:57:35.224Z,100137.81
2023-06-14T08:00:03.953Z,100141.38
2023-06-14T08:02:33.714Z,100138.47
2023-06-14T08:05:02.509Z,100147.09
2023-06-14T08:07:30.808Z,100139.47
2023-06-14T08:10:06.046Z,100153.19
2023-06-14T08:12:34.982Z,100147.28
2023-06-14T08:15:13.824Z,100152.88
2023-06-14T08:17:45.206Z,100154.53
2023-06-14T08:20:14.707Z,100155.03
2023-06-14T08:22:44.197Z,100152.72
2023-06-14T08:25:13.940Z,100152.13
2023-06-14T08:27:42.647Z,100153.44
2023-06-14T08:30:12.151Z,100156.97
2023-06-14T08:32:40.629Z,100152.78
2023-06-14T08:35:10.920Z,100155.91
2023-06-14T08:37:42.016Z,100151.75
2023-06-14T08:40:20.708Z,100154.22
2023-06-14T08:42:52.658Z,100151.22
2023-06-14T08:45:23.885Z,100154.47
2023-06-14T08:47:59.816Z,100152.13
2023-06-14T08:50:32.051Z,100156.91
2023-06-14T08:53:03.553Z,100153.81
2023-06-14T08:55:36.351Z,100148.22
2023-06-14T08:58:06.420Z,100148.84
2023-06-14T09:00:35.786Z,100152.53
2023-06-14T09:03:04.969Z,100144.09
2023-06-14T09:05:35.071Z,100148.16
2023-06-14T09:08:06.741Z,100143.00
2023-06-14T09:10:36.602Z,100130.34
2023-06-14T09:13:05.437Z,100136.03
2023-06-14T09:15:33.997Z,100132.66
2023-06-14T09:18:04.417Z,100130.13
2023-06-14T09:20:35.211Z,100126.22
2023-06-14T09:23:06.669Z,100134.03
2023-06-14T09:25:40.281Z,100120.16
2023-06-14T09:28:12.194Z,100122.72
2023-06-14T09:30:41.298Z,100136.91
2023-06-14T09:33:09.831Z,100131.34
2023-06-14T09:35:39.728Z,100130.34
2023-06-14T09:38:09.949Z,100126.53
2023-06-14T09:40:39.151Z,100129.91
2023-06-14T09:43:11.555Z,100121.56
2023-06-14T09:45:42.169Z,100126.19
2023-06-14T09:48:11.129Z,100121.47
2023-06-14T09:50:42.265Z,100110.53
2023-06-14T09:53:14.129Z,100102.97
2023-06-14T09:55:44.107Z,100110.75
2023-06-14T09:58:14.852Z,100117.34
2023-06-14T10:00:44.908Z,100116.09
2023-06-14T10:03:15.970Z,100126.66
2023-06-14T10:05:49.479Z,100125.41
2023-06-14T10:08:20.234Z,100129.53
2023-06-14T10:10:48.995Z,100130.47
2023-06-14T10:13:19.492Z,100126.56
2023-06-14T10:15:57.131Z,100126.19
2023-06-14T10:18:34.273Z,100134.72
2023-06-14T10:21:19.208Z,100132.84
2023-06-14T10:23:49.696Z,100131.91
2023-06-14T10:26:26.172Z,100119.97
2023-06-14T10:29:03.340Z,100123.28
2023-06-14T10:31:45.473Z,100132.00
2023-06-14T10:34:14.204Z,100132.75
2023-06-14T10:36:45.483Z,100129.50
2023-06-14T10:39:18.257Z,100143.03
2023-06-14T10:41:54.657Z,100139.66
2023-06-14T10:44:46.106Z,100145.63
2023-06-14T10:47:27.186Z,100142.66
2023-06-14T10:49:57.238Z,100155.78
2023-06-14T10:52:30.287Z,100155.63
2023-06-14T10:55:07.322Z,100158.69
2023-06-14T11:00:14.538Z,100151.81
2023-06-14T11:03:15.901Z,100161.50
2023-06-14T11:05:54.692Z,100161.53
2023-06-14T11:09:08.330Z,100157.22
2023-06-14T11:11:39.954Z,100158.28
2023-06-14T11:14:09.066Z,100158.13
2023-06-14T11:16:37.408Z,100157.69
2023-06-14T11:19:06.112Z,100151.97
2023-06-14T11:21:35.595Z,100152.47
2023-06-14T11:24:05.667Z,100157.38
2023-06-14T11:26:36.061Z,100158.44
2023-06-14T11:29:04.434Z,100148.38
2023-06-14T11:31:33.590Z,100159.97
2023-06-14T11:34:03.797Z,100152.00
2023-06-14T11:36:33.412Z,100161.66
2023-06-14T11:39:02.810Z,100162.44
2023-06-14T11:41:44.677Z,100154.66
2023-06-14T11:44:14.315Z,100163.53
2023-06-14T11:46:43.200Z,100160.50
2023-06-14T11:49:11.702Z,100161.16
2023-06-14T11:51:40.246Z,100169.06
2023-06-14T11:54:10.205Z,100162.38
2023-06-14T11:56:40.807Z,100167.41
2023-06-14T11:59:09.205Z,100163.38
2023-06-14T12:01:43.258Z,100171.50
2023-06-14T12:04:11.685Z,100176.75
2023-06-14T12:06:41.078Z,100174.94
2023-06-14T12:09:14.723Z,100184.41
2023-06-14T12:11:44.822Z,100176.19
2023-06-14T12:14:13.185Z,100172.94
2023-06-14T12:16:42.846Z,100169.75
2023-06-14T12:19:14.826Z,100166.47
2023-06-14T12:21:43.793Z,100165.16
2023-06-14T12:24:13.998Z,100179.06
2023-06-14T12:26:44.722Z,100166.69
2023-06-14T12:29:14.648Z,100172.03
2023-06-14T12:31:44.241Z,100166.44
2023-06-14T12:34:12.838Z,100169.25
2023-06-14T12:36:45.941Z,100160.75
2023-06-14T12:39:14.834Z,100161.69
2023-06-14T12:41:44.692Z,100159.34
2023-06-14T12:44:13.490Z,100157.47
2023-06-14T12:46:43.076Z,100158.19
2023-06-14T12:49:12.487Z,100163.44
2023-06-14T12:51:41.891Z,100154.13
2023-06-14T12:54:10.510Z,100157.16
2023-06-14T12:56:39.218Z,100158.78
2023-06-14T12:59:09.129Z,100156.72
2023-06-14T13:01:37.591Z,100152.66
2023-06-14T13:04:06.343Z,100145.84
2023-06-14T13:06:34.751Z,100146.72
2023-06-14T13:09:04.989Z,100149.94
2023-06-14T13:11:33.454Z,100155.47
2023-06-14T13:14:08.350Z,100148.34
2023-06-14T13:16:47.510Z,100153.94
2023-06-14T13:19:15.901Z,100151.38
2023-06-14T13:21:44.278Z,100151.69
2023-06-14T13:24:12.666Z,100149.63
2023-06-14T13:26:41.486Z,100153.56
2023-06-14T13:29:09.800Z,100142.94
2023-06-14T13:31:38.167Z,100139.91
2023-06-14T13:34:08.174Z,100138.22
2023-06-14T13:36:36.656Z,100145.00
2023-06-14T13:39:05.289Z,100132.53
2023-06-14T13:41:35.760Z,100137.25
2023-06-14T13:44:05.927Z,100131.16
2023-06-14T13:46:34.318Z,100136.63
2023-06-14T13:49:03.231Z,100146.63
2023-06-14T13:51:33.630Z,100145.44
2023-06-14T13:54:02.298Z,100142.78
2023-06-14T13:56:31.200Z,100133.91
2023-06-14T13:58:59.622Z,100135.09
2023-06-14T14:01:32.429Z,100140.56
2023-06-14T14:04:02.103Z,100137.50
2023-06-14T14:06:30.480Z,100137.00
2023-06-14T14:09:00.639Z,100136.78
2023-06-14T14:11:34.641Z,100134.28
2023-06-14T14:14:03.075Z,100147.34
2023-06-14T14:16:32.767Z,100141.22
2023-06-14T14:19:01.280Z,100147.97
2023-06-14T14:21:29.694Z,100141.81
2023-06-14T14:23:59.556Z,100140.44
2023-06-14T14:26:30.170Z,100142.00
2023-06-14T14:28:58.575Z,100138.41
2023-06-14T14:31:26.974Z,100131.06
2023-06-14T14:33:55.318Z,100129.63
2023-06-14T14:36:23.823Z,100117.81
2023-06-14T14:38:52.980Z,100127.03
2023-06-14T14:41:22.749Z,100128.56
2023-06-14T14:43:51.267Z,100128.88
2023-06-14T14:46:19.747Z,100130.13
2023-06-14T14:48:48.029Z,100130.22
2023-06-14T14:51:16.369Z,100135.41
2023-06-14T14:53:44.760Z,100135.84
2023-06-14T14:56:13.308Z,100133.16
2023-06-14T14:58:43.003Z,100139.00
2023-06-14T15:01:12.068Z,100138.63
2023-06-14T15:03:57.787Z,100142.94
2023-06-14T15:06:28.064Z,100140.97
2023-06-14T15:08:56.440Z,100148.38
2023-06-14T15:11:24.826Z,100145.22
2023-06-14T15:13:54.664Z,100152.22
2023-06-14T15:16:22.996Z,100152.16
2023-06-14T15:18:51.389Z,100152.88
2023-06-14T15:21:20.252Z,100155.59
2023-06-14T15:23:48.899Z,100154.84
2023-06-14T15:26:17.279Z,100150.97
2023-06-14T15:28:45.545Z,100152.59
2023-06-14T15:31:16.759Z,100147.50
2023-06-14T15:33:45.050Z,100141.31
2023-06-14T15:36:13.413Z,100142.94
2023-06-14T15:38:41.850Z,100139.38
2023-06-14T15:41:10.709Z,100149.47
2023-06-14T15:43:39.398Z,100145.59
2023-06-14T15:46:07.706Z,100144.44
2023-06-14T15:48:38.184Z,100144.41
2023-06-14T15:51:06.586Z,100144.44
2023-06-14T15:53:35.710Z,100154.63
2023-06-14T15:56:04.031Z,100156.97
2023-06-14T15:58:32.540Z,100150.31
2023-06-14T16:01:00.886Z,100149.19
2023-06-14T16:03:29.873Z,100149.56
2023-06-14T16:05:59.670Z,100154.19
2023-06-14T16:08:40.401Z,100149.56
2023-06-14T16:11:09.908Z,100148.41
2023-06-14T16:13:38.250Z,100156.13
2023-06-14T16:16:06.923Z,100164.31
2023-06-14T16:18:35.382Z,100167.78
2023-06-14T16:21:10.431Z,100166.22
2023-06-14T16:23:38.793Z,100165.06
2023-06-14T16:26:07.089Z,100155.28
2023-06-14T16:28:35.447Z,100157.53
2023-06-14T16:31:03.800Z,100164.59
2023-06-14T16:33:32.214Z,100175.56
2023-06-14T16:36:00.612Z,100182.97
2023-06-14T16:38:30.313Z,100172.06
2023-06-14T16:40:58.648Z,100170.13
2023-06-14T16:43:27.956Z,100170.16
2023-06-14T16:45:58.071Z,100175.56
2023-06-14T16:48:26.928Z,100175.97
2023-06-14T16:50:57.047Z,100179.47
2023-06-14T16:53:26.250Z,100180.19
2023-06-14T16:55:56.574Z,100194.06
2023-06-14T16:58:29.502Z,100192.34
2023-06-14T17:00:58.804Z,100185.94
2023-06-14T17:03:29.401Z,100194.09
2023-06-14T17:05:59.286Z,100192.94
2023-06-14T17:08:27.753Z,100194.19
2023-06-14T17:10:58.254Z,100192.91
2023-06-14T17:13:29.362Z,100206.03
2023-06-14T17:15:58.514Z,100200.53
2023-06-14T17:18:26.873Z,100204.50
2023-06-14T17:20:56.985Z,100210.41
2023-06-14T17:23:25.290Z,100209.19
2023-06-14T17:25:53.615Z,100213.41
2023-06-14T17:28:23.409Z,100217.25
2023-06-14T17:30:52.396Z,100218.41
2023-06-14T17:33:21.568Z,100221.13
2023-06-14T17:35:50.080Z,100221.28
2023-06-14T17:38:18.350Z,100220.97
2023-06-14T17:40:51.184Z,100226.03
2023-06-14T17:43:19.787Z,100223.94
2023-06-14T17:45:49.618Z,100220.28
2023-06-14T17:48:18.120Z,100230.28
2023-06-14T17:50:46.681Z,100235.63
2023-06-14T17:53:15.410Z,100241.06
2023-06-14T17:55:43.843Z,100236.38
2023-06-14T17:58:12.245Z,100236.38
2023-06-14T18:00:40.597Z,100245.63
2023-06-14T18:03:10.491Z,100249.03
2023-06-14T18:05:40.704Z,100254.84
2023-06-14T18:08:08.980Z,100256.06
2023-06-14T18:10:37.574Z,100267.66
2023-06-14T18:13:06.257Z,100266.00
2023-06-14T18:15:34.660Z,100276.88
2023-06-14T18:18:03.073Z,100268.66
2023-06-14T18:20:34.618Z,100276.34
2023-06-14T18:23:02.989Z,100273.94
2023-06-14T18:25:31.386Z,100275.47
2023-06-14T18:27:59.698Z,100282.22
2023-06-14T18:30:28.272Z,100287.31
2023-06-14T18:32:56.566Z,100278.66
2023-06-14T18:35:25.287Z,100286.41
2023-06-14T18:37:55.007Z,100297.94
2023-06-14T18:40:23.444Z,100290.09
2023-06-14T18:42:51.753Z,100299.69
2023-06-14T18:45:20.065Z,100310.94
2023-06-14T18:47:48.491Z,100307.84
2023-06-14T18:50:17.029Z,100304.81
2023-06-14T18:52:46.092Z,100313.66
2023-06-14T18:55:16.303Z,100330.75
2023-06-14T18:57:45.395Z,100329.25
2023-06-14T19:00:15.116Z,100323.13
2023-06-14T19:02:43.976Z,100327.88
2023-06-14T19:05:12.317Z,100328.38
2023-06-14T19:07:40.565Z,100330.91
2023-06-14T19:10:09.827Z,100332.13
2023-06-14T19:12:39.538Z,100341.00
2023-06-14T19:15:08.684Z,100340.16
2023-06-14T19:17:37.125Z,100336.66
2023-06-14T19:20:06.574Z,100343.72
2023-06-14T19:22:34.939Z,100341.66
2023-06-14T19:25:03.242Z,100334.25
2023-06-14T19:27:36.218Z,100338.09
2023-06-14T19:30:07.408Z,100340.44
2023-06-14T19:32:36.865Z,100346.25
2023-06-14T19:35:06.065Z,100344.25
2023-06-14T19:37:34.469Z,100343.78
2023-06-14T19:40:02.918Z,100347.16
2023-06-14T19:42:31.340Z,100340.53
2023-06-14T19:45:02.597Z,100335.16
2023-06-14T19:47:32.376Z,100333.94
2023-06-14T19:50:00.914Z,100342.16
2023-06-14T19:52:29.394Z,100344.03
2023-06-14T19:54:58.068Z,100348.31
2023-06-14T19:57:26.445Z,100347.47
2023-06-14T19:59:54.889Z,100358.31
2023-06-14T20:02:23.569Z,100351.31
2023-06-14T20:04:53.329Z,100347.81
2023-06-14T20:07:22.143Z,100345.13
2023-06-14T20:09:50.875Z,100345.69
2023-06-14T20:12:20.617Z,100345.84
2023-06-14T20:14:49.117Z,100346.59
2023-06-14T20:17:17.496Z,100345.13
2023-06-14T20:19:45.891Z,100351.41
2023-06-14T20:22:15.788Z,100348.31
2023-06-14T20:24:44.711Z,100358.31
2023-06-14T20:27:13.063Z,100353.66
2023-06-14T20:29:41.539Z,100352.13
2023-06-14T20:32:10.597Z,100352.53
2023-06-14T20:34:39.063Z,100353.31
2023-06-14T20:37:08.079Z,100350.31
2023-06-14T20:39:37.928Z,100363.94
2023-06-14T20:42:20.848Z,100364.78
2023-06-14T20:44:55.663Z,100351.63
2023-06-14T20:47:24.203Z,100357.47
2023-06-14T20:49:52.781Z,100363.69
2023-06-14T20:52:21.145Z,100363.38
2023-06-14T20:54:50.898Z,100354.59
2023-06-14T20:57:22.981Z,100355.78
2023-06-14T20:59:52.171Z,100355.84
2023-06-14T21:02:20.689Z,100349.69
2023-06-14T21:04:49.162Z,100354.31
2023-06-14T21:07:17.655Z,100355.13
2023-06-14T21:09:46.035Z,100338.81
2023-06-14T21:12:15.900Z,100351.97
2023-06-14T21:14:44.258Z,100344.63
2023-06-14T21:17:12.553Z,100351.91
2023-06-14T21:19:42.702Z,100346.50
2023-06-14T21:22:12.068Z,100334.13
2023-06-14T21:24:40.481Z,100340.69
2023-06-14T21:27:09.358Z,100330.91
2023-06-14T21:29:41.858Z,100330.88
2023-06-14T21:32:11.940Z,100337.03
2023-06-14T21:34:41.825Z,100326.94
2023-06-14T21:37:11.343Z,100330.38
2023-06-14T21:39:40.715Z,100328.03
2023-06-14T21:42:10.043Z,100328.75
2023-06-14T21:44:43.178Z,100330.22
2023-06-14T21:47:12.700Z,100333.22
2023-06-14T21:49:41.988Z,100336.28
2023-06-14T21:52:11.039Z,100343.63
2023-06-14T21:54:39.634Z,100327.25
2023-06-14T21:57:08.418Z,100329.09
2023-06-14T21:59:36.902Z,100335.69
2023-06-14T22:02:07.253Z,100335.25
2023-06-14T22:04:36.325Z,100329.78
2023-06-14T22:07:04.716Z,100325.50
2023-06-14T22:09:34.510Z,100327.84
2023-06-14T22:12:02.870Z,100325.13
2023-06-14T22:14:32.136Z,100323.50
2023-06-14T22:17:02.541Z,100321.59
2023-06-14T22:19:32.463Z,100329.59
2023-06-14T22:22:02.138Z,100323.66
2023-06-14T22:24:30.679Z,100326.06
2023-06-14T22:27:00.641Z,100320.91
2023-06-14T22:29:31.206Z,100325.13
2023-06-14T22:31:59.756Z,100322.34
2023-06-14T22:34:28.274Z,100319.63
2023-06-14T22:36:58.066Z,100317.34
2023-06-14T22:39:26.540Z,100316.91
2023-06-14T22:41:54.888Z,100320.00
2023-06-14T22:44:24.527Z,100313.03
2023-06-14T22:46:55.869Z,100316.63
2023-06-14T22:49:24.905Z,100312.03
2023-06-14T22:51:56.947Z,100309.69
2023-06-14T22:54:26.987Z,100315.88
2023-06-14T22:56:55.952Z,100310.06
2023-06-14T22:59:27.864Z,100301.06
2023-06-14T23:01:56.491Z,100302.91
2023-06-14T23:04:24.819Z,100308.34
2023-06-14T23:06:53.757Z,100303.28
2023-06-14T23:09:22.158Z,100308.59
2023-06-14T23:11:52.570Z,100302.38
2023-06-14T23:14:22.090Z,100305.81
2023-06-14T23:16:51.055Z,100296.97
2023-06-14T23:19:19.464Z,100294.50
2023-06-14T23:21:48.478Z,100294.00
2023-06-14T23:24:20.987Z,100286.53
2023-06-14T23:26:49.454Z,100286.78
2023-06-14T23:29:20.288Z,100289.44
2023-06-14T23:31:50.560Z,100285.50
2023-06-14T23:34:21.008Z,100293.22
2023-06-14T23:36:49.534Z,100292.72
2023-06-14T23:39:18.557Z,100289.59
2023-06-14T23:41:47.917Z,100280.66
2023-06-14T23:44:23.237Z,100275.53
2023-06-14T23:46:57.687Z,100272.09
2023-06-14T23:49:26.395Z,100284.09
2023-06-14T23:51:58.475Z,100277.53
2023-06-14T23:54:28.182Z,100289.16
2023-06-14T23:56:57.799Z,100276.72
2023-06-14T23:59:27.584Z,100290.72
